Terminal Aerodrome Forecast
Issued by NWS

Home | Current Version | Previous Version | Text Only | Print | Product List | Glossary On
Versions: 1 2 3 4 5 6 7 8 9 10 11 12 13 14 15 16 17
855
FTAK31 PAJN 241732
TAFAJN
TAF
PAJN 241732Z 2418/2518 30006KT P6SM SCT035 BKN045
      TEMPO 2418/2421 24008KT
     FM242100 24008KT P6SM SCT035 SCT050
     FM250500 28004KT P6SM SCT025 BKN035
     FM251200 VRB03KT 6SM -RA BKN015 OVC030=

USA.gov is the U.S. government's official web portal to all federal, state and local government web resources and services.